createdAt,value
2016-10-29T00:00:23.152Z,0
2016-10-29T00:01:22.712Z,0
2016-10-29T00:02:22.829Z,0
2016-10-29T00:03:22.786Z,0
2016-10-29T00:04:23.006Z,0
2016-10-29T00:05:23.498Z,0
2016-10-29T00:06:23.487Z,0
2016-10-29T00:07:23.569Z,0
2016-10-29T00:08:23.072Z,0
2016-10-29T00:09:23.250Z,0
2016-10-29T00:10:23.194Z,0
2016-10-29T00:11:23.189Z,0
2016-10-29T00:12:23.355Z,0
2016-10-29T00:13:23.357Z,0
2016-10-29T00:14:23.395Z,0
2016-10-29T00:15:23.908Z,0
2016-10-29T00:16:23.429Z,0
2016-10-29T00:17:23.558Z,0
2016-10-29T00:18:23.615Z,0
2016-10-29T00:19:23.633Z,0
2016-10-29T00:20:23.772Z,0
2016-10-29T00:21:23.748Z,0
2016-10-29T00:22:23.763Z,0
2016-10-29T00:23:24.363Z,0
2016-10-29T00:24:23.869Z,0
2016-10-29T00:25:24.035Z,0
2016-10-29T00:26:24.003Z,0
2016-10-29T00:27:23.984Z,0
2016-10-29T00:28:24.105Z,0
2016-10-29T00:29:24.161Z,0
2016-10-29T00:30:24.338Z,0
2016-10-29T00:31:24.176Z,0
2016-10-29T00:32:24.251Z,0
2016-10-29T00:33:24.302Z,0
2016-10-29T00:34:24.317Z,0
2016-10-29T00:35:24.485Z,0
2016-10-29T00:36:24.445Z,0
2016-10-29T00:37:25.077Z,0
2016-10-29T00:38:24.657Z,0
2016-10-29T00:39:24.581Z,0
2016-10-29T00:40:24.740Z,0
2016-10-29T00:41:24.722Z,0
2016-10-29T00:42:24.796Z,0
2016-10-29T00:43:24.815Z,0
2016-10-29T00:44:24.834Z,0
2016-10-29T00:45:25.023Z,0
2016-10-29T00:46:24.919Z,0
2016-10-29T00:47:25.018Z,0
2016-10-29T00:48:25.115Z,0
2016-10-29T00:49:25.063Z,0
2016-10-29T00:50:25.205Z,0
2016-10-29T00:51:25.225Z,0
2016-10-29T00:52:25.694Z,0
2016-10-29T00:53:25.315Z,0
2016-10-29T00:54:25.286Z,0
2016-10-29T00:55:25.321Z,0
2016-10-29T00:56:25.490Z,0
2016-10-29T00:57:25.439Z,0
2016-10-29T00:58:25.484Z,0
2016-10-29T00:59:25.537Z,0
2016-10-29T01:00:25.577Z,0
2016-10-29T01:01:25.809Z,0
2016-10-29T01:02:25.794Z,0
2016-10-29T01:03:25.781Z,0
2016-10-29T01:04:25.830Z,0
2016-10-29T01:05:25.931Z,0
2016-10-29T01:06:25.973Z,0
2016-10-29T01:07:26.020Z,0
2016-10-29T01:08:25.976Z,0
2016-10-29T01:09:26.080Z,0
2016-10-29T01:10:26.162Z,0
2016-10-29T01:11:26.230Z,0
2016-10-29T01:12:26.226Z,0
2016-10-29T01:13:26.259Z,0
2016-10-29T01:14:26.342Z,0
2016-10-29T01:15:26.432Z,0
2016-10-29T01:16:26.496Z,0
2016-10-29T01:17:26.455Z,0
2016-10-29T01:18:26.474Z,0
2016-10-29T01:19:26.588Z,0
2016-10-29T01:20:26.544Z,0
2016-10-29T01:21:26.763Z,0
2016-10-29T01:22:27.236Z,0
2016-10-29T01:23:26.716Z,0
2016-10-29T01:24:26.752Z,0
2016-10-29T01:25:26.932Z,0
2016-10-29T01:26:27.001Z,0
2016-10-29T01:27:26.973Z,0
2016-10-29T01:28:26.966Z,0
2016-10-29T01:29:27.058Z,0
2016-10-29T01:30:27.086Z,0
2016-10-29T01:31:27.115Z,0
2016-10-29T01:32:27.255Z,0
2016-10-29T01:33:27.229Z,0
2016-10-29T01:34:27.243Z,0
2016-10-29T01:35:27.337Z,0
2016-10-29T01:36:27.374Z,0
2016-10-29T01:37:27.571Z,0
2016-10-29T01:38:27.511Z,0
2016-10-29T01:39:27.488Z,0
2016-10-29T01:40:28.081Z,0
2016-10-29T01:41:28.178Z,0
2016-10-29T01:42:27.757Z,0
2016-10-29T01:43:27.655Z,0
2016-10-29T01:44:27.701Z,0
2016-10-29T01:45:27.828Z,0
2016-10-29T01:46:27.796Z,0
2016-10-29T01:47:27.957Z,0
2016-10-29T01:48:27.998Z,0
2016-10-29T01:49:27.979Z,0
2016-10-29T01:50:28.079Z,0
2016-10-29T01:51:28.092Z,0
2016-10-29T01:52:28.292Z,0
2016-10-29T01:53:28.168Z,0
2016-10-29T01:54:28.284Z,0
2016-10-29T01:55:28.324Z,0
2016-10-29T01:56:28.370Z,0
2016-10-29T01:57:28.483Z,0
2016-10-29T01:58:28.460Z,0
2016-10-29T01:59:28.469Z,0
2016-10-29T02:00:28.541Z,0
2016-10-29T02:01:28.602Z,0
2016-10-29T02:02:28.617Z,0
2016-10-29T02:03:28.676Z,0
2016-10-29T02:04:29.272Z,0
2016-10-29T02:05:28.818Z,0
2016-10-29T02:06:28.871Z,0
2016-10-29T02:07:28.878Z,0
2016-10-29T02:08:29.119Z,0
2016-10-29T02:09:29.072Z,0
2016-10-29T02:10:29.058Z,0
2016-10-29T02:11:29.101Z,0
2016-10-29T02:12:29.129Z,0
2016-10-29T02:13:29.264Z,0
2016-10-29T02:14:29.194Z,0
2016-10-29T02:15:29.240Z,0
2016-10-29T02:16:29.840Z,0
2016-10-29T02:17:29.307Z,0
2016-10-29T02:18:29.551Z,0
2016-10-29T02:19:29.490Z,0
2016-10-29T02:20:29.536Z,0
2016-10-29T02:21:30.586Z,0
2016-10-29T02:22:29.567Z,0
2016-10-29T02:23:29.756Z,0
2016-10-29T02:24:29.814Z,0
2016-10-29T02:25:29.803Z,0
2016-10-29T02:26:30.412Z,0
2016-10-29T02:27:29.819Z,0
2016-10-29T02:28:30.103Z,0
2016-10-29T02:29:29.908Z,0
2016-10-29T02:30:30.018Z,0
2016-10-29T02:31:30.090Z,0
2016-10-29T02:32:30.076Z,0
2016-10-29T02:33:30.252Z,0
2016-10-29T02:34:30.156Z,0
2016-10-29T02:35:30.208Z,0
2016-10-29T02:36:30.286Z,0
2016-10-29T02:37:30.407Z,0
2016-10-29T02:38:30.339Z,0
2016-10-29T02:39:30.436Z,0
2016-10-29T02:40:30.524Z,0
2016-10-29T02:41:31.074Z,0
2016-10-29T02:42:30.565Z,0
2016-10-29T02:43:30.598Z,0
2016-10-29T02:44:30.823Z,0
2016-10-29T02:45:30.699Z,0
2016-10-29T02:46:30.732Z,0
2016-10-29T02:47:30.877Z,0
2016-10-29T02:48:30.916Z,0
2016-10-29T02:49:31.010Z,0
2016-10-29T02:50:31.016Z,0
2016-10-29T02:51:31.523Z,0
2016-10-29T02:52:31.015Z,0
2016-10-29T02:53:31.079Z,0
2016-10-29T02:54:31.259Z,0
2016-10-29T02:55:31.173Z,0
2016-10-29T02:56:31.256Z,0
2016-10-29T02:57:31.284Z,0
2016-10-29T02:58:31.319Z,0
2016-10-29T02:59:31.494Z,0
2016-10-29T03:00:31.444Z,0
2016-10-29T03:01:31.547Z,0
2016-10-29T03:02:31.539Z,0
2016-10-29T03:03:31.590Z,0
2016-10-29T03:04:31.727Z,0
2016-10-29T03:05:31.735Z,0
2016-10-29T03:06:31.722Z,0
2016-10-29T03:07:31.762Z,0
2016-10-29T03:08:31.816Z,0
2016-10-29T03:09:31.837Z,0
2016-10-29T03:10:31.958Z,0
2016-10-29T03:11:31.985Z,0
2016-10-29T03:12:32.066Z,0
2016-10-29T03:13:32.180Z,0
2016-10-29T03:14:32.149Z,0
2016-10-29T03:15:32.278Z,0
2016-10-29T03:16:32.244Z,0
2016-10-29T03:17:32.279Z,0
2016-10-29T03:18:32.378Z,0
2016-10-29T03:19:32.397Z,0
2016-10-29T03:20:32.501Z,0
2016-10-29T03:21:32.545Z,0
2016-10-29T03:22:32.602Z,0
2016-10-29T03:23:32.676Z,0
2016-10-29T03:24:32.624Z,0
2016-10-29T03:25:32.833Z,0
2016-10-29T03:26:32.686Z,0
2016-10-29T03:27:32.784Z,0
2016-10-29T03:28:32.805Z,0
2016-10-29T03:29:32.866Z,0
2016-10-29T03:30:33.561Z,0
2016-10-29T03:31:32.977Z,0
2016-10-29T03:32:33.010Z,0
2016-10-29T03:33:33.052Z,0
2016-10-29T03:34:33.179Z,0
2016-10-29T03:35:33.327Z,0
2016-10-29T03:36:33.224Z,0
2016-10-29T03:37:33.207Z,0
2016-10-29T03:38:33.317Z,0
2016-10-29T03:39:33.338Z,0
2016-10-29T03:40:33.605Z,0
2016-10-29T03:41:33.441Z,0
2016-10-29T03:42:33.524Z,0
2016-10-29T03:43:33.573Z,0
2016-10-29T03:44:33.699Z,0
2016-10-29T03:45:33.824Z,0
2016-10-29T03:46:33.713Z,0
2016-10-29T03:47:33.838Z,0
2016-10-29T03:48:34.336Z,0
2016-10-29T03:49:34.326Z,0
2016-10-29T03:50:33.873Z,0
2016-10-29T03:51:34.082Z,0
2016-10-29T03:52:34.027Z,0
2016-10-29T03:53:33.978Z,0
2016-10-29T03:54:34.088Z,0
2016-10-29T03:55:34.140Z,0
2016-10-29T03:56:34.286Z,0
2016-10-29T03:57:34.276Z,0
2016-10-29T03:58:34.246Z,0
2016-10-29T03:59:34.302Z,0
2016-10-29T04:00:34.405Z,0
2016-10-29T04:01:34.480Z,0
2016-10-29T04:02:34.469Z,0
2016-10-29T04:03:34.539Z,0
2016-10-29T04:04:34.574Z,0
2016-10-29T04:05:34.602Z,0
2016-10-29T04:06:34.759Z,0
2016-10-29T04:07:34.689Z,0
2016-10-29T04:08:34.826Z,0
2016-10-29T04:09:34.865Z,0
2016-10-29T04:10:34.884Z,0
2016-10-29T04:11:35.010Z,0
2016-10-29T04:12:34.968Z,0
2016-10-29T04:13:34.981Z,0
2016-10-29T04:14:35.202Z,0
2016-10-29T04:15:35.114Z,0
2016-10-29T04:16:35.239Z,0
2016-10-29T04:17:35.219Z,0
2016-10-29T04:18:35.240Z,0
2016-10-29T04:19:36.315Z,0
2016-10-29T04:20:35.337Z,0
2016-10-29T04:21:35.413Z,0
2016-10-29T04:22:35.452Z,0
2016-10-29T04:23:35.463Z,0
2016-10-29T04:24:35.602Z,0
2016-10-29T04:25:35.615Z,0
2016-10-29T04:26:35.652Z,0
2016-10-29T04:27:36.404Z,0
2016-10-29T04:28:35.708Z,0
2016-10-29T04:29:35.808Z,0
2016-10-29T04:30:35.834Z,0
2016-10-29T04:31:35.960Z,0
2016-10-29T04:32:36.087Z,0
2016-10-29T04:33:36.034Z,0
2016-10-29T04:34:36.053Z,0
2016-10-29T04:35:36.159Z,0
2016-10-29T04:36:36.134Z,0
2016-10-29T04:37:36.256Z,0
2016-10-29T04:38:36.232Z,0
2016-10-29T04:39:36.354Z,0
2016-10-29T04:40:36.359Z,0
2016-10-29T04:41:36.364Z,0
2016-10-29T04:42:36.517Z,0
2016-10-29T04:43:36.516Z,0
2016-10-29T04:44:36.547Z,0
2016-10-29T04:45:36.557Z,0
2016-10-29T04:46:36.635Z,0
2016-10-29T04:47:36.825Z,0
2016-10-29T04:48:36.691Z,0
2016-10-29T04:49:36.791Z,0
2016-10-29T04:50:36.909Z,0
2016-10-29T04:51:36.860Z,0
2016-10-29T04:52:36.891Z,0
2016-10-29T04:53:37.503Z,0
2016-10-29T04:54:37.058Z,0
2016-10-29T04:55:37.020Z,0
2016-10-29T04:56:37.087Z,0
2016-10-29T04:57:37.176Z,0
2016-10-29T04:58:37.279Z,0
2016-10-29T04:59:37.242Z,0
2016-10-29T05:00:37.311Z,0
2016-10-29T05:01:37.312Z,0
2016-10-29T05:02:37.570Z,0
2016-10-29T05:03:37.558Z,0
2016-10-29T05:04:37.542Z,0
2016-10-29T05:05:37.479Z,0
2016-10-29T05:06:37.591Z,0
2016-10-29T05:07:37.660Z,0
2016-10-29T05:08:38.403Z,0
2016-10-29T05:09:38.228Z,0
2016-10-29T05:10:37.735Z,0
2016-10-29T05:11:37.815Z,0
2016-10-29T05:12:37.963Z,0
2016-10-29T05:13:38.072Z,0
2016-10-29T05:14:37.952Z,0
2016-10-29T05:15:38.103Z,0
2016-10-29T05:16:38.022Z,0
2016-10-29T05:17:38.093Z,0
2016-10-29T05:18:38.405Z,0
2016-10-29T05:19:38.209Z,0
2016-10-29T05:20:38.332Z,0
2016-10-29T05:21:38.322Z,0
2016-10-29T05:22:38.422Z,0
2016-10-29T05:23:38.444Z,0
2016-10-29T05:24:38.450Z,0
2016-10-29T05:25:38.540Z,0
2016-10-29T05:26:38.527Z,0
2016-10-29T05:27:38.613Z,0
2016-10-29T05:28:38.625Z,0
2016-10-29T05:29:38.785Z,0
2016-10-29T05:30:38.761Z,0
2016-10-29T05:31:38.809Z,0
2016-10-29T05:32:38.945Z,0
2016-10-29T05:33:38.892Z,0
2016-10-29T05:34:39.028Z,0
2016-10-29T05:35:38.954Z,0
2016-10-29T05:36:39.074Z,0
2016-10-29T05:37:39.052Z,0
2016-10-29T05:38:39.163Z,0
2016-10-29T05:39:39.258Z,0
2016-10-29T05:40:39.236Z,0
2016-10-29T05:41:39.380Z,0
2016-10-29T05:42:39.368Z,0
2016-10-29T05:43:39.464Z,0
2016-10-29T05:44:39.541Z,0
2016-10-29T05:45:39.481Z,0
2016-10-29T05:46:39.508Z,0
2016-10-29T05:47:39.539Z,0
2016-10-29T05:48:39.588Z,0
2016-10-29T05:49:39.787Z,0
2016-10-29T05:50:39.730Z,0
2016-10-29T05:51:39.726Z,0
2016-10-29T05:52:39.847Z,0
2016-10-29T05:53:39.917Z,0
2016-10-29T05:54:39.891Z,0
2016-10-29T05:55:39.948Z,0
2016-10-29T05:56:40.053Z,0
2016-10-29T05:57:40.091Z,0
2016-10-29T05:58:40.116Z,0
2016-10-29T05:59:40.234Z,0
2016-10-29T06:00:40.304Z,0
2016-10-29T06:01:40.302Z,0
2016-10-29T06:02:40.330Z,0
2016-10-29T06:03:40.300Z,0
2016-10-29T06:04:40.398Z,0
2016-10-29T06:05:40.618Z,0
2016-10-29T06:06:40.489Z,0
2016-10-29T06:07:40.571Z,0
2016-10-29T06:08:40.617Z,0
2016-10-29T06:09:40.790Z,0
2016-10-29T06:10:40.793Z,0
2016-10-29T06:11:40.798Z,0
2016-10-29T06:12:40.722Z,0
2016-10-29T06:13:40.876Z,0
2016-10-29T06:14:40.952Z,0
2016-10-29T06:15:41.069Z,0
2016-10-29T06:16:41.084Z,0
2016-10-29T06:17:41.078Z,0
2016-10-29T06:18:41.127Z,0
2016-10-29T06:19:41.097Z,0
2016-10-29T06:20:41.314Z,0
2016-10-29T06:21:41.190Z,0
2016-10-29T06:22:41.242Z,0
2016-10-29T06:23:41.307Z,0
2016-10-29T06:24:41.324Z,0
2016-10-29T06:25:41.446Z,0
2016-10-29T06:26:41.451Z,0
2016-10-29T06:27:41.604Z,0
2016-10-29T06:28:41.552Z,0
2016-10-29T06:29:41.672Z,0
2016-10-29T06:30:41.614Z,0
2016-10-29T06:31:41.837Z,0
2016-10-29T06:32:42.277Z,0
2016-10-29T06:33:41.770Z,0
2016-10-29T06:34:41.821Z,0
2016-10-29T06:35:41.930Z,0
2016-10-29T06:36:42.048Z,0
2016-10-29T06:37:42.001Z,0
2016-10-29T06:38:42.087Z,0
2016-10-29T06:39:42.172Z,0
2016-10-29T06:40:42.182Z,0
2016-10-29T06:41:42.273Z,0
2016-10-29T06:42:42.272Z,0
2016-10-29T06:43:42.827Z,0
2016-10-29T06:44:42.376Z,0
2016-10-29T06:45:42.385Z,0
2016-10-29T06:46:42.650Z,0
2016-10-29T06:47:42.540Z,0
2016-10-29T06:48:42.578Z,0
2016-10-29T06:49:42.611Z,0
2016-10-29T06:50:42.628Z,0
2016-10-29T06:51:42.748Z,0
2016-10-29T06:52:42.689Z,0
2016-10-29T06:53:42.782Z,0
2016-10-29T06:54:42.835Z,0
2016-10-29T06:55:42.901Z,0
2016-10-29T06:56:42.941Z,0
2016-10-29T06:57:42.960Z,0
2016-10-29T06:58:43.058Z,0
2016-10-29T06:59:43.067Z,0
2016-10-29T07:00:43.202Z,0
2016-10-29T07:01:43.147Z,0
2016-10-29T07:02:43.363Z,0
2016-10-29T07:03:43.248Z,0
2016-10-29T07:04:43.328Z,0
2016-10-29T07:05:43.399Z,0
2016-10-29T07:06:43.412Z,0
2016-10-29T07:07:43.545Z,0
2016-10-29T07:08:43.586Z,0
2016-10-29T07:09:44.156Z,0
2016-10-29T07:10:43.595Z,0
2016-10-29T07:11:43.659Z,0
2016-10-29T07:12:43.891Z,0
2016-10-29T07:13:43.741Z,0
2016-10-29T07:14:43.881Z,0
2016-10-29T07:15:43.902Z,0
2016-10-29T07:16:43.882Z,0
2016-10-29T07:17:44.071Z,0
2016-10-29T07:18:44.066Z,0
2016-10-29T07:19:44.025Z,0
2016-10-29T07:20:44.070Z,0
2016-10-29T07:21:44.162Z,0
2016-10-29T07:22:44.306Z,0
2016-10-29T07:23:44.245Z,0
2016-10-29T07:24:44.322Z,0
2016-10-29T07:25:44.378Z,0
2016-10-29T07:26:44.361Z,0
2016-10-29T07:27:44.406Z,0
2016-10-29T07:28:44.500Z,0
2016-10-29T07:29:44.605Z,0
2016-10-29T07:30:44.564Z,0
2016-10-29T07:31:44.632Z,0
2016-10-29T07:32:44.658Z,0
2016-10-29T07:33:44.829Z,0
2016-10-29T07:34:44.861Z,0
2016-10-29T07:35:44.832Z,0
2016-10-29T07:36:44.837Z,0
2016-10-29T07:37:44.955Z,0
2016-10-29T07:38:45.044Z,0
2016-10-29T07:39:45.026Z,0
2016-10-29T07:40:45.042Z,0
2016-10-29T07:41:45.103Z,0
2016-10-29T07:42:45.190Z,0
2016-10-29T07:43:45.299Z,0
2016-10-29T07:44:45.212Z,0
2016-10-29T07:45:45.326Z,0
2016-10-29T07:46:45.325Z,0
2016-10-29T07:47:45.379Z,0
2016-10-29T07:48:45.529Z,0
2016-10-29T07:49:45.446Z,0
2016-10-29T07:50:45.523Z,0
2016-10-29T07:51:45.567Z,0
2016-10-29T07:52:45.625Z,0
2016-10-29T07:53:45.791Z,0
2016-10-29T07:54:45.753Z,4
2016-10-29T07:55:46.339Z,4
2016-10-29T07:56:45.813Z,0
2016-10-29T07:57:45.871Z,4
2016-10-29T07:58:46.059Z,4
2016-10-29T07:59:45.927Z,4
2016-10-29T08:00:46.011Z,4
2016-10-29T08:01:46.066Z,8
2016-10-29T08:02:46.137Z,8
2016-10-29T08:03:46.280Z,12
2016-10-29T08:04:46.215Z,16
2016-10-29T08:05:46.281Z,20
2016-10-29T08:06:46.309Z,24
2016-10-29T08:07:46.423Z,28
2016-10-29T08:08:46.433Z,32
2016-10-29T08:09:46.480Z,32
2016-10-29T08:10:46.542Z,40
2016-10-29T08:11:46.546Z,40
2016-10-29T08:12:46.568Z,48
2016-10-29T08:13:46.649Z,56
2016-10-29T08:14:46.802Z,64
2016-10-29T08:15:46.788Z,60
2016-10-29T08:16:46.782Z,64
2016-10-29T08:17:46.807Z,68
2016-10-29T08:18:46.863Z,88
2016-10-29T08:19:47.030Z,108
2016-10-29T08:20:46.989Z,120
2016-10-29T08:21:47.075Z,132
2016-10-29T08:22:47.110Z,144
2016-10-29T08:23:47.135Z,172
2016-10-29T08:24:47.270Z,200
2016-10-29T08:25:47.226Z,220
2016-10-29T08:26:47.278Z,264
2016-10-29T08:27:47.363Z,292
2016-10-29T08:28:47.386Z,312
2016-10-29T08:29:47.500Z,344
2016-10-29T08:30:47.480Z,404
2016-10-29T08:31:47.532Z,496
2016-10-29T08:32:47.601Z,588
2016-10-29T08:33:47.655Z,700
2016-10-29T08:34:47.660Z,772
2016-10-29T08:35:47.689Z,892
2016-10-29T08:36:47.805Z,940
2016-10-29T08:37:47.805Z,1088
2016-10-29T08:38:47.830Z,1204
2016-10-29T08:39:47.956Z,1224
2016-10-29T08:40:48.089Z,1360
2016-10-29T08:41:48.051Z,1544
2016-10-29T08:42:48.058Z,1796
2016-10-29T08:43:48.113Z,2120
2016-10-29T08:44:48.124Z,1800
2016-10-29T08:45:48.829Z,3252
2016-10-29T08:46:48.253Z,3476
2016-10-29T08:47:48.281Z,3332
2016-10-29T08:48:48.362Z,3424
2016-10-29T08:49:48.435Z,5028
2016-10-29T08:50:48.565Z,7652
2016-10-29T08:51:48.485Z,3956
2016-10-29T08:52:48.548Z,4796
2016-10-29T08:53:48.618Z,6308
2016-10-29T08:54:49.162Z,2860
2016-10-29T08:55:48.821Z,3948
2016-10-29T08:56:48.751Z,3428
2016-10-29T08:57:49.347Z,3268
2016-10-29T08:58:48.869Z,3172
2016-10-29T08:59:48.870Z,4264
2016-10-29T09:00:48.968Z,5116
2016-10-29T09:01:48.982Z,5228
2016-10-29T09:02:49.046Z,9212
2016-10-29T09:03:49.063Z,22880
2016-10-29T09:04:49.139Z,12556
2016-10-29T09:05:49.206Z,17984
2016-10-29T09:06:49.318Z,5424
2016-10-29T09:07:49.287Z,4864
2016-10-29T09:08:49.334Z,34080
2016-10-29T09:09:49.366Z,5880
2016-10-29T09:10:49.404Z,32704
2016-10-29T09:11:49.548Z,14692
2016-10-29T09:12:49.514Z,5672
2016-10-29T09:13:49.611Z,27392
2016-10-29T09:14:49.634Z,29856
2016-10-29T09:15:49.617Z,5660
2016-10-29T09:16:50.366Z,32928
2016-10-29T09:17:49.779Z,11952
2016-10-29T09:18:49.868Z,36832
2016-10-29T09:19:49.890Z,27168
2016-10-29T09:20:49.926Z,27072
2016-10-29T09:21:50.024Z,47968
2016-10-29T09:22:50.025Z,37216
2016-10-29T09:23:50.066Z,18880
2016-10-29T09:24:50.137Z,74496
2016-10-29T09:25:50.218Z,80512
2016-10-29T09:26:50.276Z,32576
2016-10-29T09:27:50.264Z,71072
2016-10-29T09:28:50.319Z,85728
2016-10-29T09:29:50.394Z,57568
2016-10-29T09:30:50.412Z,13936
2016-10-29T09:31:50.577Z,48896
2016-10-29T09:32:50.511Z,10992
2016-10-29T09:33:50.594Z,73344
2016-10-29T09:34:50.667Z,92928
2016-10-29T09:35:50.722Z,93408
2016-10-29T09:36:50.738Z,83840
2016-10-29T09:37:50.788Z,95808
2016-10-29T09:38:50.821Z,95168
2016-10-29T09:39:50.904Z,12320
2016-10-29T09:40:50.934Z,13256
2016-10-29T09:41:51.575Z,12472
2016-10-29T09:42:51.063Z,8240
2016-10-29T09:43:51.111Z,8964
2016-10-29T09:44:51.130Z,7864
2016-10-29T09:45:51.226Z,3408
2016-10-29T09:46:51.266Z,2516
2016-10-29T09:47:51.436Z,2120
2016-10-29T09:48:51.353Z,1964
2016-10-29T09:49:51.430Z,1856
2016-10-29T09:50:52.037Z,2044
2016-10-29T09:51:51.528Z,3208
2016-10-29T09:52:51.720Z,4616
2016-10-29T09:53:51.637Z,5448
2016-10-29T09:54:51.736Z,8592
2016-10-29T09:55:51.746Z,10948
2016-10-29T09:56:51.807Z,15188
2016-10-29T09:57:51.975Z,61728
2016-10-29T09:58:51.834Z,16008
2016-10-29T09:59:51.920Z,93600
2016-10-29T10:00:51.977Z,98144
2016-10-29T10:01:52.033Z,88544
2016-10-29T10:02:52.185Z,35264
2016-10-29T10:03:52.153Z,74848
2016-10-29T10:04:52.156Z,95744
2016-10-29T10:05:52.229Z,10392
2016-10-29T10:06:52.284Z,26816
2016-10-29T10:07:52.470Z,14768
2016-10-29T10:08:52.437Z,17728
2016-10-29T10:09:52.437Z,16512
2016-10-29T10:10:52.486Z,16768
2016-10-29T10:11:52.562Z,16512
2016-10-29T10:12:52.751Z,16160
2016-10-29T10:13:52.648Z,16416
2016-10-29T10:14:52.711Z,16320
2016-10-29T10:15:52.810Z,12408
2016-10-29T10:16:52.800Z,17088
2016-10-29T10:17:52.856Z,10272
2016-10-29T10:18:52.983Z,11524
2016-10-29T10:19:52.963Z,6328
2016-10-29T10:20:53.035Z,18176
2016-10-29T10:21:53.134Z,16992
2016-10-29T10:22:53.132Z,15904
2016-10-29T10:23:53.379Z,9392
2016-10-29T10:24:53.217Z,7820
2016-10-29T10:25:53.797Z,14136
2016-10-29T10:26:53.363Z,11840
2016-10-29T10:27:53.404Z,10760
2016-10-29T10:28:53.567Z,10960
2016-10-29T10:29:53.509Z,10692
2016-10-29T10:30:53.531Z,10500
2016-10-29T10:31:53.570Z,10408
2016-10-29T10:32:53.618Z,7472
2016-10-29T10:33:53.751Z,5832
2016-10-29T10:34:53.767Z,6424
2016-10-29T10:35:53.745Z,6520
2016-10-29T10:36:53.855Z,6024
2016-10-29T10:37:53.884Z,6696
2016-10-29T10:38:54.093Z,6432
2016-10-29T10:39:54.521Z,7460
2016-10-29T10:40:54.042Z,8724
2016-10-29T10:41:54.118Z,9552
2016-10-29T10:42:54.138Z,7576
2016-10-29T10:43:54.204Z,7420
2016-10-29T10:44:54.255Z,7772
2016-10-29T10:45:54.304Z,9232
2016-10-29T10:46:54.328Z,8300
2016-10-29T10:47:54.891Z,10180
2016-10-29T10:48:54.454Z,9364
2016-10-29T10:49:54.580Z,9460
2016-10-29T10:50:54.524Z,9384
2016-10-29T10:51:54.603Z,9360
2016-10-29T10:52:54.607Z,9456
2016-10-29T10:53:54.703Z,9532
2016-10-29T10:54:54.842Z,9420
2016-10-29T10:55:54.782Z,9828
2016-10-29T10:56:54.816Z,8464
2016-10-29T10:57:54.851Z,7808
2016-10-29T10:58:55.408Z,8996
2016-10-29T10:59:55.119Z,8788
2016-10-29T11:00:55.054Z,9328
2016-10-29T11:01:55.097Z,9432
2016-10-29T11:02:55.159Z,8980
2016-10-29T11:03:55.751Z,8428
2016-10-29T11:04:55.378Z,7884
2016-10-29T11:05:55.315Z,6772
2016-10-29T11:06:55.405Z,7140
2016-10-29T11:07:55.957Z,7496
2016-10-29T11:08:55.428Z,8044
2016-10-29T11:09:55.600Z,8728
2016-10-29T11:10:55.536Z,8260
2016-10-29T11:11:55.616Z,8464
2016-10-29T11:12:55.647Z,8352
2016-10-29T11:13:56.252Z,8120
2016-10-29T11:14:55.872Z,8156
2016-10-29T11:15:55.790Z,6544
2016-10-29T11:16:55.841Z,8528
2016-10-29T11:17:55.905Z,8424
2016-10-29T11:18:55.948Z,8620
2016-10-29T11:19:56.010Z,8896
2016-10-29T11:20:56.048Z,8784
2016-10-29T11:21:56.091Z,7316
2016-10-29T11:22:56.163Z,8888
2016-10-29T11:23:56.196Z,7488
2016-10-29T11:24:56.246Z,7004
2016-10-29T11:25:56.441Z,8876
2016-10-29T11:26:56.339Z,7248
2016-10-29T11:27:56.423Z,6832
2016-10-29T11:28:56.450Z,7880
2016-10-29T11:29:56.515Z,7696
2016-10-29T11:30:56.679Z,8096
2016-10-29T11:31:56.631Z,6808
2016-10-29T11:32:57.697Z,8728
2016-10-29T11:33:56.707Z,8576
2016-10-29T11:34:57.832Z,8464
2016-10-29T11:35:57.427Z,6396
2016-10-29T11:36:56.856Z,6628
2016-10-29T11:37:57.450Z,5780
2016-10-29T11:38:56.972Z,7568
2016-10-29T11:39:57.041Z,7576
2016-10-29T11:40:57.186Z,6560
2016-10-29T11:41:57.110Z,6836
2016-10-29T11:42:57.192Z,5924
2016-10-29T11:43:57.258Z,7044
2016-10-29T11:44:57.248Z,6504
2016-10-29T11:45:57.417Z,6156
2016-10-29T11:46:57.377Z,6104
2016-10-29T11:47:57.436Z,5908
2016-10-29T11:48:57.466Z,5800
2016-10-29T11:49:57.536Z,5792
2016-10-29T11:50:58.172Z,5764
2016-10-29T11:51:57.612Z,5796
2016-10-29T11:52:57.659Z,5768
2016-10-29T11:53:57.726Z,5860
2016-10-29T11:54:57.770Z,5944
2016-10-29T11:55:58.370Z,5960
2016-10-29T11:56:57.874Z,5584
2016-10-29T11:57:58.466Z,6296
2016-10-29T11:58:57.996Z,4604
2016-10-29T11:59:58.003Z,5892
2016-10-29T12:00:58.121Z,6528
2016-10-29T12:01:58.216Z,6448
2016-10-29T12:02:58.192Z,5208
2016-10-29T12:03:58.195Z,6736
2016-10-29T12:04:58.791Z,6792
2016-10-29T12:05:58.346Z,6856
2016-10-29T12:06:58.476Z,4740
2016-10-29T12:07:58.399Z,5268
2016-10-29T12:08:58.495Z,6784
2016-10-29T12:09:58.525Z,5788
2016-10-29T12:10:58.553Z,6056
2016-10-29T12:11:58.701Z,6484
2016-10-29T12:12:58.683Z,6212
2016-10-29T12:13:58.741Z,6336
2016-10-29T12:14:58.786Z,6312
2016-10-29T12:15:58.845Z,6000
2016-10-29T12:16:59.538Z,6420
2016-10-29T12:17:58.915Z,5364
2016-10-29T12:18:59.009Z,4452
2016-10-29T12:19:59.099Z,4784
2016-10-29T12:20:59.109Z,6424
2016-10-29T12:21:59.179Z,5112
2016-10-29T12:22:59.210Z,4924
2016-10-29T12:23:59.777Z,4660
2016-10-29T12:24:59.872Z,5876
2016-10-29T12:25:59.353Z,5840
2016-10-29T12:26:59.375Z,6224
2016-10-29T12:27:59.414Z,4908
2016-10-29T12:28:59.503Z,5904
2016-10-29T12:29:59.607Z,5948
2016-10-29T12:30:59.624Z,4416
2016-10-29T12:31:59.650Z,5916
2016-10-29T12:32:59.767Z,6108
2016-10-29T12:33:59.726Z,6140
2016-10-29T12:34:59.813Z,6104
2016-10-29T12:35:59.842Z,6188
2016-10-29T12:37:00.446Z,6140
2016-10-29T12:38:00.019Z,6180
2016-10-29T12:39:00.020Z,6176
2016-10-29T12:40:00.117Z,6024
2016-10-29T12:41:00.108Z,5940
2016-10-29T12:42:00.185Z,5912
2016-10-29T12:43:00.333Z,5928
2016-10-29T12:44:00.230Z,5944
2016-10-29T12:45:00.333Z,6080
2016-10-29T12:46:00.386Z,6296
2016-10-29T12:47:00.455Z,6592
2016-10-29T12:48:01.103Z,6756
2016-10-29T12:49:00.492Z,6852
2016-10-29T12:50:00.494Z,6812
2016-10-29T12:51:00.609Z,6620
2016-10-29T12:52:00.652Z,6600
2016-10-29T12:53:00.822Z,6596
2016-10-29T12:54:00.746Z,6588
2016-10-29T12:55:00.853Z,6848
2016-10-29T12:56:00.849Z,4840
2016-10-29T12:57:01.427Z,6072
2016-10-29T12:58:01.029Z,7040
2016-10-29T12:59:01.029Z,7112
2016-10-29T13:00:01.051Z,7096
2016-10-29T13:01:01.119Z,7228
2016-10-29T13:02:01.173Z,6632
2016-10-29T13:03:01.233Z,7344
2016-10-29T13:04:01.243Z,7512
2016-10-29T13:05:01.321Z,7496
2016-10-29T13:06:01.373Z,7632
2016-10-29T13:07:01.446Z,7920
2016-10-29T13:08:01.462Z,6800
2016-10-29T13:09:01.491Z,6196
2016-10-29T13:10:01.583Z,5904
2016-10-29T13:11:01.660Z,5724
2016-10-29T13:12:02.177Z,7812
2016-10-29T13:13:01.742Z,7992
2016-10-29T13:14:02.408Z,8268
2016-10-29T13:15:01.785Z,8308
2016-10-29T13:16:01.889Z,6744
2016-10-29T13:17:01.928Z,8428
2016-10-29T13:18:01.976Z,8208
2016-10-29T13:19:02.154Z,8296
2016-10-29T13:20:02.083Z,7760
2016-10-29T13:21:02.119Z,6224
2016-10-29T13:22:02.191Z,5976
2016-10-29T13:23:02.259Z,5792
2016-10-29T13:24:02.389Z,5828
2016-10-29T13:25:02.341Z,6000
2016-10-29T13:26:02.407Z,5940
2016-10-29T13:27:02.423Z,5980
2016-10-29T13:28:03.005Z,5984
2016-10-29T13:29:02.671Z,6296
2016-10-29T13:30:02.579Z,6348
2016-10-29T13:31:02.638Z,6528
2016-10-29T13:32:02.676Z,5972
2016-10-29T13:33:02.758Z,7728
2016-10-29T13:34:02.902Z,6556
2016-10-29T13:35:02.864Z,7632
2016-10-29T13:36:02.952Z,7484
2016-10-29T13:37:02.936Z,5616
2016-10-29T13:38:03.037Z,5848
2016-10-29T13:39:03.048Z,7424
2016-10-29T13:40:03.143Z,7480
2016-10-29T13:41:03.133Z,7264
2016-10-29T13:42:03.194Z,7568
2016-10-29T13:43:03.258Z,7564
2016-10-29T13:44:03.348Z,7420
2016-10-29T13:45:03.416Z,7068
2016-10-29T13:46:03.394Z,6292
2016-10-29T13:47:03.459Z,6848
2016-10-29T13:48:03.547Z,6892
2016-10-29T13:49:03.545Z,6868
2016-10-29T13:50:03.710Z,7144
2016-10-29T13:51:03.668Z,7124
2016-10-29T13:52:03.697Z,7188
2016-10-29T13:53:04.295Z,7012
2016-10-29T13:54:03.899Z,7000
2016-10-29T13:55:03.964Z,7144
2016-10-29T13:56:03.905Z,5564
2016-10-29T13:57:03.974Z,5864
2016-10-29T13:58:03.991Z,7296
2016-10-29T13:59:04.072Z,7232
2016-10-29T14:00:04.808Z,6096
2016-10-29T14:01:04.677Z,5128
2016-10-29T14:02:04.223Z,6684
2016-10-29T14:03:04.297Z,6504
2016-10-29T14:04:04.303Z,6576
2016-10-29T14:05:04.419Z,5044
2016-10-29T14:06:04.438Z,5156
2016-10-29T14:07:05.051Z,5860